Time;durP1;ratioP1;P1;durP2;ratioP2;P2;SDS_P1;SDS_P2;PMS_P1;PMS_P2;Temp;Humidity;BMP_temperature;BMP_pressure;BME280_temperature;BME280_humidity;BME280_pressure;Samples;Min_cycle;Max_cycle;Signal;HPM_P1;HPM_P2
2023/04/11 00:02:17;;;;;;;17.02;7.13;;;8.30;99.90;;;;;;5057136;28;20032;-82
2023/04/11 00:04:42;;;;;;;18.08;7.57;;;8.30;99.90;;;;;;5074508;28;20099;-82
2023/04/11 00:07:08;;;;;;;14.52;6.75;;;8.30;99.90;;;;;;5074138;28;20029;-82
2023/04/11 00:09:37;;;;;;;14.43;7.65;;;8.30;99.90;;;;;;5057560;28;20071;-82
2023/04/11 00:12:03;;;;;;;14.32;8.82;;;8.30;99.90;;;;;;5056782;28;20074;-82
2023/04/11 00:14:32;;;;;;;17.23;8.52;;;8.20;99.90;;;;;;5073798;28;20430;-83
2023/04/11 00:16:59;;;;;;;18.58;8.70;;;8.20;99.90;;;;;;5056990;28;20033;-83
2023/04/11 00:19:27;;;;;;;13.75;8.60;;;8.20;99.90;;;;;;5074165;28;20060;-82
2023/04/11 00:21:57;;;;;;;18.25;9.27;;;8.20;99.90;;;;;;5072819;28;20025;-82
2023/04/11 00:24:23;;;;;;;16.50;9.55;;;8.20;99.90;;;;;;5072584;28;20036;-82
2023/04/11 00:26:49;;;;;;;17.42;8.75;;;8.20;99.90;;;;;;5073449;28;20388;-82
2023/04/11 00:29:15;;;;;;;18.25;8.85;;;8.20;99.90;;;;;;5073547;28;20029;-83
2023/04/11 00:31:41;;;;;;;16.60;10.48;;;8.20;99.90;;;;;;5073714;28;20502;-83
2023/04/11 00:34:06;;;;;;;18.80;9.65;;;8.20;99.90;;;;;;5057165;28;20012;-82
2023/04/11 00:36:32;;;;;;;17.70;8.82;;;8.20;99.90;;;;;;5073168;28;20028;-82
2023/04/11 00:39:00;;;;;;;16.85;9.00;;;8.20;99.90;;;;;;5074597;28;20024;-83
2023/04/11 00:41:26;;;;;;;20.73;9.20;;;8.20;99.90;;;;;;5056548;28;20033;-83
2023/04/11 00:44:18;;;;;;;14.50;9.85;;;8.20;99.90;;;;;;5056642;28;20031;-83
2023/04/11 00:46:45;;;;;;;16.65;9.27;;;8.20;99.90;;;;;;5050941;28;20021;-83
2023/04/11 00:49:11;;;;;;;16.42;10.10;;;8.30;99.90;;;;;;5056708;28;20472;-83
2023/04/11 00:51:37;;;;;;;17.40;9.88;;;8.30;99.90;;;;;;5056265;28;20111;-83
2023/04/11 00:54:03;;;;;;;19.15;9.75;;;8.30;99.90;;;;;;5055673;28;20024;-82
2023/04/11 00:56:29;;;;;;;17.67;11.05;;;8.30;99.90;;;;;;5055664;28;20094;-82
2023/04/11 00:59:01;;;;;;;18.15;10.45;;;8.30;99.90;;;;;;5056025;28;20044;-82
2023/04/11 01:01:29;;;;;;;20.25;10.65;;;8.30;99.90;;;;;;5074043;28;20059;-82
2023/04/11 01:03:54;;;;;;;16.17;10.98;;;8.20;99.90;;;;;;5073152;28;20108;-83
2023/04/11 01:06:22;;;;;;;15.02;9.30;;;8.20;99.90;;;;;;5056347;28;20463;-82
2023/04/11 01:08:48;;;;;;;18.63;9.40;;;8.20;99.90;;;;;;5055612;28;20029;-83
2023/04/11 01:11:18;;;;;;;16.00;9.93;;;8.10;99.90;;;;;;5073030;28;20074;-83
2023/04/11 01:13:45;;;;;;;17.50;10.00;;;8.10;99.90;;;;;;5067451;28;20795;-83
2023/04/11 01:16:23;;;;;;;16.90;8.75;;;8.10;99.90;;;;;;5053026;28;20082;-83
2023/04/11 01:18:49;;;;;;;16.52;9.25;;;8.00;99.90;;;;;;5072367;28;20052;-83
2023/04/11 01:21:18;;;;;;;14.40;8.85;;;8.00;99.90;;;;;;5055816;28;20071;-83
2023/04/11 01:23:47;;;;;;;18.17;8.80;;;8.00;99.90;;;;;;5056063;28;20030;-83
2023/04/11 01:26:13;;;;;;;14.65;8.23;;;8.00;99.90;;;;;;5055461;28;20035;-83
2023/04/11 01:28:39;;;;;;;15.45;7.97;;;8.00;99.90;;;;;;5072786;28;20104;-83
2023/04/11 01:31:07;;;;;;;16.70;8.75;;;8.00;99.90;;;;;;5072718;28;20044;-83
2023/04/11 01:33:33;;;;;;;14.43;7.57;;;8.00;99.90;;;;;;5056584;28;20058;-83
2023/04/11 01:35:59;;;;;;;16.95;7.75;;;7.90;99.90;;;;;;5072249;28;20020;-83
2023/04/11 01:38:25;;;;;;;17.00;8.10;;;7.90;99.90;;;;;;5072098;28;20116;-83
2023/04/11 01:40:52;;;;;;;13.05;7.00;;;7.90;99.90;;;;;;5055679;28;20029;-83
2023/04/11 01:43:18;;;;;;;14.18;7.95;;;7.90;99.90;;;;;;5072297;28;20035;-82
2023/04/11 01:45:44;;;;;;;14.57;7.53;;;7.90;99.90;;;;;;5055909;28;20127;-82
2023/04/11 01:48:10;;;;;;;12.85;8.13;;;7.90;99.90;;;;;;5072230;28;20029;-83
2023/04/11 01:50:37;;;;;;;12.20;7.80;;;7.90;99.90;;;;;;5055628;28;20021;-82
2023/04/11 01:53:03;;;;;;;12.63;7.30;;;7.80;99.90;;;;;;5071999;28;20027;-83
2023/04/11 01:55:29;;;;;;;10.57;6.75;;;7.80;99.90;;;;;;5071570;28;20021;-83
2023/04/11 01:57:55;;;;;;;10.65;6.35;;;7.70;99.90;;;;;;5071891;28;20055;-83
2023/04/11 02:00:21;;;;;;;14.05;7.38;;;7.70;99.90;;;;;;5054447;28;20043;-83
2023/04/11 02:02:46;;;;;;;9.65;5.55;;;7.70;99.90;;;;;;5088798;28;20589;-83
2023/04/11 02:05:12;;;;;;;9.43;5.65;;;7.60;99.90;;;;;;5072167;28;20036;-83
2023/04/11 02:07:37;;;;;;;12.07;6.78;;;7.60;99.90;;;;;;5055060;28;20112;-83
2023/04/11 02:10:04;;;;;;;13.88;7.50;;;7.50;99.90;;;;;;5055171;28;20017;-83
2023/04/11 02:12:31;;;;;;;11.40;7.03;;;7.50;99.90;;;;;;5071521;28;20020;-83
2023/04/11 02:14:57;;;;;;;12.68;6.88;;;7.50;99.90;;;;;;5071421;28;20035;-83
2023/04/11 02:17:24;;;;;;;10.93;7.13;;;7.40;99.90;;;;;;5072293;28;20479;-82
2023/04/11 02:19:53;;;;;;;12.90;7.85;;;7.50;99.90;;;;;;5071262;28;20083;-83
2023/04/11 02:22:19;;;;;;;12.82;7.05;;;7.40;99.90;;;;;;5071663;28;20039;-84
2023/04/11 02:24:46;;;;;;;10.75;7.07;;;7.40;99.90;;;;;;5071870;28;20488;-83
2023/04/11 02:27:12;;;;;;;13.77;7.65;;;7.40;99.90;;;;;;5070979;28;20029;-83
2023/04/11 02:29:38;;;;;;;14.00;7.40;;;7.40;99.90;;;;;;5054447;28;20032;-83
2023/04/11 02:32:03;;;;;;;16.27;8.45;;;7.40;99.90;;;;;;5067960;28;20019;-84
2023/04/11 02:34:29;;;;;;;15.30;6.97;;;7.30;99.90;;;;;;5071708;28;20024;-83
2023/04/11 02:36:55;;;;;;;11.73;6.35;;;7.30;99.90;;;;;;5071833;28;20055;-83
2023/04/11 02:39:23;;;;;;;11.98;6.50;;;7.30;99.90;;;;;;5071203;28;20059;-83
2023/04/11 02:41:49;;;;;;;12.32;6.50;;;7.20;99.90;;;;;;5054882;28;20033;-83
2023/04/11 02:44:16;;;;;;;9.63;5.70;;;7.20;99.90;;;;;;5071505;28;20031;-84
2023/04/11 02:46:43;;;;;;;8.90;4.88;;;7.20;99.90;;;;;;5055715;28;20115;-83
2023/04/11 02:49:19;;;;;;;9.23;4.38;;;7.00;99.90;;;;;;5055148;28;20107;-83
2023/04/11 02:51:46;;;;;;;9.18;3.97;;;7.00;99.90;;;;;;5071690;28;20021;-83
2023/04/11 02:54:12;;;;;;;5.28;3.28;;;6.90;99.90;;;;;;5071757;28;20059;-83
2023/04/11 02:56:38;;;;;;;7.68;2.67;;;6.90;99.90;;;;;;5054676;28;20032;-83
2023/04/11 02:59:05;;;;;;;6.85;2.53;;;6.80;99.90;;;;;;5071878;28;20021;-82
2023/04/11 03:01:32;;;;;;;9.90;2.60;;;6.60;99.90;;;;;;5071464;28;20040;-83
2023/04/11 03:03:58;;;;;;;7.68;3.30;;;6.60;99.90;;;;;;5054972;28;20047;-83
2023/04/11 03:06:30;;;;;;;5.20;2.28;;;6.60;99.90;;;;;;5071032;28;20037;-84
2023/04/11 03:08:59;;;;;;;2.53;1.70;;;6.60;99.90;;;;;;5072007;28;20027;-83
2023/04/11 03:11:25;;;;;;;6.28;1.63;;;6.40;99.90;;;;;;5070910;28;20066;-83
2023/04/11 03:13:51;;;;;;;4.47;1.70;;;6.30;99.90;;;;;;5069492;28;20024;-83
2023/04/11 03:16:16;;;;;;;3.40;1.23;;;6.20;99.90;;;;;;5071011;28;20032;-83
2023/04/11 03:18:42;;;;;;;5.90;1.30;;;6.10;99.90;;;;;;5074014;28;20471;-83
2023/04/11 03:21:11;;;;;;;2.10;1.00;;;6.00;99.90;;;;;;5058868;28;20067;-83
2023/04/11 03:23:40;;;;;;;6.43;1.42;;;5.90;99.90;;;;;;5074620;28;20028;-83
2023/04/11 03:26:06;;;;;;;2.78;1.00;;;5.80;99.90;;;;;;5057531;28;20037;-83
2023/04/11 03:28:32;;;;;;;6.72;1.48;;;5.70;99.90;;;;;;5070993;28;20491;-83
2023/04/11 03:30:59;;;;;;;3.00;1.15;;;5.70;99.90;;;;;;5074883;28;20048;-83
2023/04/11 03:33:25;;;;;;;6.40;1.10;;;5.60;99.90;;;;;;5091577;28;20025;-83
2023/04/11 03:35:51;;;;;;;3.25;1.02;;;5.60;99.90;;;;;;5058115;28;20548;-83
2023/04/11 03:38:16;;;;;;;3.28;1.05;;;5.50;99.90;;;;;;5074745;28;20048;-83
2023/04/11 03:40:42;;;;;;;2.05;1.27;;;5.50;99.90;;;;;;5058133;28;20099;-84
2023/04/11 03:43:12;;;;;;;2.78;0.82;;;5.50;99.90;;;;;;5074456;28;20035;-83
2023/04/11 03:45:40;;;;;;;4.45;1.10;;;5.40;99.90;;;;;;5057997;28;20606;-83
2023/04/11 03:48:12;;;;;;;4.55;1.60;;;5.40;99.90;;;;;;5074581;28;20033;-82
2023/04/11 03:50:52;;;;;;;6.90;1.38;;;5.40;99.90;;;;;;5059946;28;20044;-83
2023/04/11 03:53:24;;;;;;;4.18;1.20;;;5.40;99.90;;;;;;5074046;28;20548;-82
2023/04/11 03:55:54;;;;;;;2.70;1.20;;;5.40;99.90;;;;;;5057891;28;20052;-82
2023/04/11 03:58:27;;;;;;;4.95;1.65;;;5.40;99.90;;;;;;5073594;28;20063;-82
2023/04/11 04:00:53;;;;;;;5.32;1.60;;;5.40;99.90;;;;;;5073419;28;20016;-82
2023/04/11 04:03:19;;;;;;;2.33;1.02;;;5.40;99.90;;;;;;5074294;28;20380;-82
2023/04/11 04:05:45;;;;;;;1.92;1.30;;;5.40;99.90;;;;;;5073865;28;20047;-82
2023/04/11 04:08:12;;;;;;;6.82;1.83;;;5.40;99.90;;;;;;5073927;28;20032;-83
2023/04/11 04:10:48;;;;;;;5.00;1.67;;;5.30;99.90;;;;;;5074169;28;20074;-82
2023/04/11 04:13:14;;;;;;;3.42;1.63;;;5.30;99.90;;;;;;5073971;28;20031;-82
2023/04/11 04:15:50;;;;;;;2.40;1.20;;;5.30;99.90;;;;;;5058505;28;20552;-82
2023/04/11 04:18:19;;;;;;;2.17;1.13;;;5.30;99.90;;;;;;5057526;28;20064;-82
2023/04/11 04:20:46;;;;;;;6.25;1.45;;;5.30;99.90;;;;;;5056789;28;20024;-82
2023/04/11 04:23:16;;;;;;;5.90;1.60;;;5.40;99.90;;;;;;5053488;28;20544;-82
2023/04/11 04:26:03;;;;;;;5.03;1.50;;;5.40;99.90;;;;;;5076849;28;20112;-82
2023/04/11 04:28:32;;;;;;;2.92;1.40;;;5.40;99.90;;;;;;5073261;28;20428;-82
2023/04/11 04:31:02;;;;;;;4.70;1.60;;;5.30;99.90;;;;;;5057428;28;20032;-82
2023/04/11 04:33:35;;;;;;;3.90;2.30;;;5.40;99.90;;;;;;5073606;28;20437;-83
2023/04/11 04:36:08;;;;;;;2.40;1.27;;;5.40;99.90;;;;;;5057209;28;20023;-83
2023/04/11 04:38:37;;;;;;;2.28;1.02;;;5.40;99.90;;;;;;5073295;28;20172;-82
2023/04/11 04:41:13;;;;;;;5.10;1.10;;;5.40;99.90;;;;;;5056999;28;20035;-82
2023/04/11 04:43:43;;;;;;;5.57;1.45;;;5.40;99.90;;;;;;5080735;28;20116;-85
2023/04/11 04:46:19;;;;;;;3.05;1.30;;;5.40;99.90;;;;;;5068529;28;20214;-85
2023/04/11 04:48:48;;;;;;;10.52;3.42;;;5.40;99.90;;;;;;5057690;28;20051;-86
2023/04/11 04:51:14;;;;;;;3.80;2.00;;;5.40;99.90;;;;;;5073802;28;20020;-85
2023/04/11 04:53:40;;;;;;;3.33;1.17;;;5.50;99.90;;;;;;5069869;28;20039;-86
2023/04/11 04:56:08;;;;;;;6.35;2.83;;;5.50;99.90;;;;;;5073686;28;20027;-85
2023/04/11 04:58:38;;;;;;;7.22;3.78;;;5.40;99.90;;;;;;5073449;28;20104;-84
2023/04/11 05:01:07;;;;;;;14.90;7.30;;;5.40;99.90;;;;;;5073193;28;20383;-85
2023/04/11 05:03:34;;;;;;;9.88;5.18;;;5.40;99.90;;;;;;5073177;28;20429;-85
2023/04/11 05:06:02;;;;;;;14.10;6.13;;;5.40;99.90;;;;;;5072937;28;20433;-85
2023/04/11 05:08:28;;;;;;;15.55;7.20;;;5.40;99.90;;;;;;5071241;28;20383;-85
2023/04/11 05:10:58;;;;;;;8.52;4.93;;;5.30;99.90;;;;;;5073291;28;20395;-85
2023/04/11 05:13:24;;;;;;;7.90;3.33;;;5.30;99.90;;;;;;5073704;28;20471;-85
2023/04/11 05:15:50;;;;;;;8.98;3.20;;;5.30;99.90;;;;;;5057531;28;20144;-85
2023/04/11 05:18:17;;;;;;;4.85;1.85;;;5.40;99.90;;;;;;5054402;28;20539;-85
2023/04/11 05:20:48;;;;;;;6.28;1.15;;;5.40;99.90;;;;;;5073518;28;20423;-85
2023/04/11 05:23:19;;;;;;;9.65;3.20;;;5.40;99.90;;;;;;5073352;28;20020;-86
2023/04/11 05:25:46;;;;;;;14.20;4.07;;;5.40;99.90;;;;;;5056887;28;20024;-86
2023/04/11 05:28:14;;;;;;;5.43;2.00;;;5.40;99.90;;;;;;5057299;28;20029;-86
2023/04/11 05:30:41;;;;;;;1.98;1.27;;;5.40;99.90;;;;;;5073116;28;20024;-86
2023/04/11 05:33:07;;;;;;;5.47;1.58;;;5.40;99.90;;;;;;5057045;28;20025;-86
2023/04/11 05:35:33;;;;;;;9.38;2.35;;;5.40;99.90;;;;;;5073404;28;20036;-86
2023/04/11 05:37:59;;;;;;;35.50;22.48;;;5.50;99.90;;;;;;5052881;28;20035;-86
2023/04/11 05:40:25;;;;;;;8.20;4.68;;;5.50;99.90;;;;;;5072544;28;20123;-86
2023/04/11 05:42:50;;;;;;;3.95;2.20;;;5.60;99.90;;;;;;5056386;28;20060;-86
2023/04/11 05:45:17;;;;;;;12.85;7.93;;;5.60;99.90;;;;;;5056672;28;20089;-87
2023/04/11 05:47:43;;;;;;;6.78;3.95;;;5.60;99.90;;;;;;5056715;28;20036;-86
2023/04/11 05:50:09;;;;;;;2.10;1.75;;;5.70;99.90;;;;;;5073076;28;20020;-86
2023/04/11 05:52:53;;;;;;;3.28;1.40;;;5.70;99.90;;;;;;5056088;28;20388;-86
2023/04/11 05:55:22;;;;;;;1.85;1.30;;;5.80;99.90;;;;;;5073066;28;20468;-87
2023/04/11 05:57:48;;;;;;;3.20;1.27;;;5.90;99.90;;;;;;5056331;28;20021;-86
2023/04/11 06:00:15;;;;;;;4.80;1.40;;;5.90;99.90;;;;;;5054394;28;20036;-86
2023/04/11 06:02:42;;;;;;;4.50;2.38;;;5.90;99.90;;;;;;5072174;28;20028;-86
2023/04/11 06:05:10;;;;;;;2.95;1.80;;;6.00;99.90;;;;;;5056427;28;20054;-85
2023/04/11 06:07:40;;;;;;;6.50;2.42;;;6.10;99.90;;;;;;5089346;28;20032;-86
2023/04/11 06:13:53;;;;;;;5.35;2.15;;;6.30;99.90;;;;;;5057811;28;20284;-85
2023/04/11 06:16:19;;;;;;;4.22;1.60;;;6.40;99.90;;;;;;5065792;28;20025;-85
2023/04/11 06:18:44;;;;;;;4.25;2.13;;;6.40;99.90;;;;;;5068749;28;20028;-86
2023/04/11 06:21:10;;;;;;;9.32;2.83;;;6.50;99.90;;;;;;5053578;28;20454;-86
2023/04/11 06:23:36;;;;;;;10.48;2.88;;;6.50;99.90;;;;;;5067599;28;20476;-86
2023/04/11 06:26:02;;;;;;;18.45;13.70;;;6.60;99.90;;;;;;5063512;28;20686;-86
2023/04/11 06:28:27;;;;;;;15.82;10.18;;;6.70;99.90;;;;;;5080027;28;20027;-86
2023/04/11 06:30:53;;;;;;;8.68;4.25;;;6.80;99.90;;;;;;5051920;28;20020;-86
2023/04/11 06:33:19;;;;;;;8.35;4.40;;;6.90;99.90;;;;;;5063584;28;20029;-86
2023/04/11 06:35:45;;;;;;;6.13;4.20;;;7.00;99.90;;;;;;5067430;28;20078;-86
2023/04/11 06:38:10;;;;;;;7.32;4.18;;;7.10;99.90;;;;;;5061462;28;20035;-85
2023/04/11 06:40:36;;;;;;;25.60;13.90;;;7.20;99.90;;;;;;5066990;28;20083;-86
2023/04/11 06:43:02;;;;;;;8.35;3.92;;;7.20;99.90;;;;;;5064180;28;20044;-86
2023/04/11 06:45:28;;;;;;;11.73;5.60;;;7.10;99.90;;;;;;5068070;28;20060;-86
2023/04/11 06:47:54;;;;;;;12.88;5.13;;;7.10;99.90;;;;;;5050321;28;20115;-86
2023/04/11 06:50:19;;;;;;;8.10;4.72;;;7.20;99.90;;;;;;5064474;28;20455;-85
2023/04/11 06:52:45;;;;;;;12.95;4.57;;;7.30;99.90;;;;;;5086770;28;20024;-86
2023/04/11 06:55:14;;;;;;;13.18;4.53;;;7.30;99.90;;;;;;5071694;28;20097;-86
2023/04/11 06:57:42;;;;;;;10.25;3.55;;;7.30;99.90;;;;;;5055759;28;20032;-84
2023/04/11 07:00:11;;;;;;;9.07;4.28;;;7.30;99.90;;;;;;5060515;28;20063;-86
2023/04/11 07:02:38;;;;;;;16.38;6.72;;;7.40;99.90;;;;;;5061092;28;20064;-86
2023/04/11 07:05:04;;;;;;;11.93;4.38;;;7.50;99.90;;;;;;5058757;28;20039;-84
2023/04/11 07:07:31;;;;;;;13.82;5.80;;;7.30;99.90;;;;;;5058005;28;20133;-85
2023/04/11 07:09:56;;;;;;;10.68;5.50;;;7.30;99.90;;;;;;5052665;28;20025;-86
2023/04/11 07:12:22;;;;;;;9.82;4.53;;;7.40;99.90;;;;;;5069109;28;20032;-86
2023/04/11 07:14:48;;;;;;;8.98;3.60;;;7.40;99.90;;;;;;5074347;28;20371;-86
2023/04/11 07:17:14;;;;;;;8.55;3.58;;;7.50;99.90;;;;;;5054606;28;20025;-86
2023/04/11 07:19:40;;;;;;;13.20;5.53;;;7.60;99.90;;;;;;5052961;28;20319;-85
2023/04/11 07:22:06;;;;;;;13.35;4.10;;;7.80;99.90;;;;;;5057368;28;20025;-86
2023/04/11 07:24:32;;;;;;;18.35;4.43;;;7.50;99.90;;;;;;5068428;28;20029;-86
2023/04/11 07:26:57;;;;;;;10.60;3.35;;;7.50;99.90;;;;;;5058082;28;20029;-85
2023/04/11 07:29:24;;;;;;;8.25;3.60;;;7.40;99.90;;;;;;5071857;28;20056;-85
2023/04/11 07:31:50;;;;;;;14.93;3.08;;;7.20;99.90;;;;;;5089345;28;20025;-85
2023/04/11 07:34:16;;;;;;;10.63;3.25;;;7.30;99.90;;;;;;5079895;28;20016;-85
2023/04/11 07:36:42;;;;;;;14.65;3.42;;;7.20;99.90;;;;;;5061982;28;20113;-85
2023/04/11 07:39:11;;;;;;;13.23;3.47;;;7.10;99.90;;;;;;5067264;28;20048;-85
2023/04/11 07:41:37;;;;;;;10.60;3.55;;;7.20;99.90;;;;;;5064455;28;20024;-85
2023/04/11 07:44:05;;;;;;;11.52;3.20;;;7.30;99.90;;;;;;5065240;28;20117;-85
2023/04/11 07:46:32;;;;;;;7.78;2.65;;;7.50;99.90;;;;;;5068758;28;20097;-86
2023/04/11 07:48:58;;;;;;;15.30;2.90;;;7.70;99.90;;;;;;5054482;28;20107;-86
2023/04/11 07:51:25;;;;;;;8.00;2.70;;;7.60;99.90;;;;;;5066908;28;20484;-85
2023/04/11 07:53:51;;;;;;;7.53;3.08;;;7.80;99.90;;;;;;5065484;28;20044;-85
2023/04/11 07:56:16;;;;;;;12.57;3.42;;;7.70;99.90;;;;;;5072346;28;20024;-85
2023/04/11 07:58:42;;;;;;;17.02;5.20;;;7.70;99.90;;;;;;5084689;28;20056;-85
2023/04/11 08:01:19;;;;;;;10.48;2.42;;;7.60;99.90;;;;;;5073284;28;20102;-86
2023/04/11 08:03:45;;;;;;;18.80;3.03;;;7.50;99.90;;;;;;5076101;28;20033;-85
2023/04/11 08:06:11;;;;;;;13.13;2.92;;;7.50;99.90;;;;;;5050257;28;20032;-86
2023/04/11 08:08:37;;;;;;;16.70;3.20;;;7.70;99.90;;;;;;5057489;28;20056;-85
2023/04/11 08:11:02;;;;;;;11.05;2.08;;;7.60;99.90;;;;;;5051887;28;20531;-86
2023/04/11 08:13:28;;;;;;;13.60;2.88;;;7.60;99.90;;;;;;5063146;28;20487;-85
2023/04/11 08:15:54;;;;;;;13.27;2.05;;;7.60;99.90;;;;;;5051599;28;20029;-85
2023/04/11 08:18:20;;;;;;;12.75;3.10;;;7.70;99.90;;;;;;5069546;28;20028;-86
2023/04/11 08:20:47;;;;;;;12.13;2.20;;;7.80;99.90;;;;;;5084570;28;20475;-86
2023/04/11 08:23:14;;;;;;;9.15;2.90;;;7.90;99.90;;;;;;5074445;28;20067;-85
2023/04/11 08:25:40;;;;;;;14.75;3.03;;;7.80;99.90;;;;;;5074894;28;20037;-85
2023/04/11 08:28:08;;;;;;;13.60;2.60;;;7.80;99.90;;;;;;5077705;28;20043;-85
2023/04/11 08:30:34;;;;;;;7.18;2.00;;;7.90;99.90;;;;;;5070323;28;20036;-85
2023/04/11 08:33:01;;;;;;;20.70;5.75;;;8.00;99.90;;;;;;5057290;28;20475;-86
2023/04/11 08:35:27;;;;;;;14.50;2.25;;;8.00;99.90;;;;;;5088808;28;20177;-86
2023/04/11 08:37:53;;;;;;;10.45;2.03;;;8.30;99.90;;;;;;5086380;28;20024;-86
2023/04/11 08:40:19;;;;;;;8.23;4.00;;;8.50;99.90;;;;;;5081963;28;20028;-86
2023/04/11 08:42:45;;;;;;;14.77;3.38;;;8.80;99.90;;;;;;5061737;28;20028;-86
2023/04/11 08:45:11;;;;;;;9.73;1.88;;;9.10;99.90;;;;;;5084270;28;20119;-86
2023/04/11 08:47:37;;;;;;;7.00;2.30;;;9.00;99.90;;;;;;5056214;28;20033;-86
2023/04/11 08:50:04;;;;;;;11.90;2.50;;;8.70;99.90;;;;;;5061700;28;20028;-87
2023/04/11 08:52:31;;;;;;;12.55;2.28;;;8.60;99.90;;;;;;5079390;28;20025;-86
2023/04/11 08:54:57;;;;;;;8.10;1.90;;;8.50;99.90;;;;;;5079480;28;20040;-86
2023/04/11 08:57:25;;;;;;;8.65;2.75;;;8.80;99.90;;;;;;5060023;28;20047;-85
2023/04/11 08:59:55;;;;;;;8.30;1.95;;;10.40;99.90;;;;;;5067296;28;20070;-85
2023/04/11 09:02:21;;;;;;;9.13;2.65;;;11.20;99.90;;;;;;5074375;28;20043;-86
2023/04/11 09:04:47;;;;;;;8.07;1.88;;;11.00;99.90;;;;;;5074289;28;20526;-86
2023/04/11 09:07:17;;;;;;;8.00;2.55;;;11.20;99.90;;;;;;5059545;28;20028;-86
2023/04/11 09:09:44;;;;;;;11.43;3.65;;;11.20;99.90;;;;;;5073585;28;20028;-86
2023/04/11 09:12:11;;;;;;;8.20;2.20;;;10.70;99.90;;;;;;5054112;28;20024;-86
2023/04/11 09:14:37;;;;;;;8.63;2.00;;;10.00;99.90;;;;;;5057345;28;20021;-87
2023/04/11 09:17:05;;;;;;;8.05;3.40;;;9.60;99.90;;;;;;5048589;28;20042;-87
2023/04/11 09:19:32;;;;;;;11.60;2.47;;;10.00;99.90;;;;;;5074785;28;20066;-87
2023/04/11 09:22:00;;;;;;;10.50;2.40;;;9.80;99.90;;;;;;5057648;28;20031;-86
2023/04/11 09:25:00;;;;;;;5.93;1.80;;;9.30;99.90;;;;;;5077005;28;20484;-86
2023/04/11 09:27:26;;;;;;;7.50;2.10;;;9.20;99.90;;;;;;5074417;28;20037;-86
2023/04/11 09:29:51;;;;;;;9.73;2.20;;;9.90;99.90;;;;;;5074470;28;20044;-86
2023/04/11 09:32:26;;;;;;;12.98;3.10;;;10.00;99.90;;;;;;5051894;28;20041;-86
2023/04/11 09:35:09;;;;;;;9.73;2.30;;;9.60;99.90;;;;;;5066794;28;20542;-86
2023/04/11 09:37:52;;;;;;;8.77;2.10;;;9.40;99.90;;;;;;5052469;28;20567;-86
2023/04/11 09:40:24;;;;;;;9.52;1.85;;;9.60;99.90;;;;;;5051659;28;20534;-87
2023/04/11 09:42:57;;;;;;;;;;;9.30;99.90;;;;;;5050425;28;20025;-86
2023/04/11 09:45:25;;;;;;;10.52;2.13;;;9.20;99.90;;;;;;5056604;28;19909;-86
2023/04/11 09:47:53;;;;;;;11.05;2.72;;;9.20;99.90;;;;;;5057314;28;20033;-86
2023/04/11 09:50:19;;;;;;;6.75;2.65;;;10.00;99.90;;;;;;5056864;28;20075;-86
2023/04/11 09:52:46;;;;;;;9.25;2.58;;;10.10;99.90;;;;;;5072796;28;20025;-86
2023/04/11 09:55:15;;;;;;;10.18;2.33;;;10.40;99.90;;;;;;5056864;28;20069;-86
2023/04/11 09:57:44;;;;;;;12.45;3.30;;;10.30;99.90;;;;;;5079166;28;20224;-87
2023/04/11 10:00:17;;;;;;;10.73;2.30;;;10.50;99.90;;;;;;5073522;28;20024;-86
2023/04/11 10:02:44;;;;;;;10.65;2.45;;;10.60;99.90;;;;;;5056548;28;20037;-86
2023/04/11 10:05:12;;;;;;;9.85;2.40;;;10.60;99.90;;;;;;5056300;28;20021;-86
2023/04/11 10:08:09;;;;;;;10.70;2.88;;;10.80;99.90;;;;;;5069039;28;20033;-86
2023/04/11 10:10:35;;;;;;;11.68;1.92;;;10.70;99.90;;;;;;5052585;28;20029;-87
2023/04/11 10:13:02;;;;;;;9.23;1.88;;;10.30;99.90;;;;;;5053011;28;20032;-86
2023/04/11 10:15:28;;;;;;;7.25;2.38;;;9.80;99.90;;;;;;5048516;28;20029;-86
2023/04/11 10:18:11;;;;;;;12.50;2.20;;;9.50;99.90;;;;;;5083570;28;20082;-86
2023/04/11 10:20:43;;;;;;;6.50;1.80;;;9.00;99.90;;;;;;5057258;28;20069;-86
2023/04/11 10:23:10;;;;;;;9.00;2.30;;;8.60;99.90;;;;;;5046331;28;20116;-86
2023/04/11 10:25:59;;;;;;;8.32;2.03;;;8.30;99.90;;;;;;5067642;28;20034;-86
2023/04/11 10:28:31;;;;;;;11.80;2.10;;;8.10;99.90;;;;;;5045415;28;20133;-85
2023/04/11 10:31:12;;;;;;;11.88;2.00;;;8.00;99.90;;;;;;5061344;28;20021;-87
2023/04/11 10:33:39;;;;;;;14.55;3.97;;;8.00;99.90;;;;;;5047739;28;20033;-86
2023/04/11 10:36:08;;;;;;;11.23;3.42;;;7.80;99.90;;;;;;5056179;28;20472;-86
2023/04/11 10:38:41;;;;;;;11.13;2.78;;;7.70;99.90;;;;;;5066334;28;20025;-86
2023/04/11 10:41:26;;;;;;;15.07;3.22;;;7.90;99.90;;;;;;5055060;28;20021;-85
2023/04/11 10:44:19;;;;;;;10.95;2.33;;;8.30;99.90;;;;;;5070651;28;20035;-86
2023/04/11 10:46:53;;;;;;;7.80;2.35;;;8.90;99.90;;;;;;5045472;28;20368;-86
2023/04/11 10:49:36;;;;;;;16.15;2.83;;;9.20;99.90;;;;;;5067339;28;20047;-85
2023/04/11 10:52:20;;;;;;;8.13;2.22;;;8.90;99.90;;;;;;5074079;28;20051;-86
2023/04/11 10:54:47;;;;;;;9.07;4.18;;;8.40;99.90;;;;;;5061489;28;20455;-85
2023/04/11 10:57:13;;;;;;;12.13;2.08;;;8.40;99.90;;;;;;5043223;28;20063;-86
2023/04/11 10:59:39;;;;;;;14.15;2.80;;;9.10;99.90;;;;;;5065294;28;20025;-86
2023/04/11 11:02:04;;;;;;;10.70;1.90;;;9.10;99.90;;;;;;5060244;28;20031;-86
2023/04/11 11:04:38;;;;;;;12.60;2.40;;;9.10;99.90;;;;;;5076968;28;20031;-86
2023/04/11 11:07:06;;;;;;;11.93;2.30;;;8.90;99.90;;;;;;5051791;28;20028;-85
2023/04/11 11:09:33;;;;;;;8.75;2.25;;;8.70;99.90;;;;;;5056160;28;20037;-86
2023/04/11 11:12:12;;;;;;;17.02;2.60;;;8.60;99.90;;;;;;5062967;28;20017;-86
2023/04/11 11:14:41;;;;;;;11.95;2.80;;;8.40;99.90;;;;;;5060485;28;20025;-84
2023/04/11 11:17:07;;;;;;;14.85;4.20;;;8.20;99.90;;;;;;5056184;28;20036;-86
2023/04/11 11:19:34;;;;;;;13.70;2.33;;;8.70;99.90;;;;;;5065232;28;20036;-85
2023/04/11 11:22:03;;;;;;;11.07;2.30;;;9.20;99.90;;;;;;5083293;28;20035;-86
2023/04/11 11:24:30;;;;;;;12.55;2.55;;;9.30;99.90;;;;;;5043985;28;20065;-86
2023/04/11 11:26:56;;;;;;;7.95;2.15;;;9.20;99.90;;;;;;5077903;28;20047;-85
2023/04/11 11:29:49;;;;;;;19.00;3.38;;;9.00;99.90;;;;;;5046184;28;20029;-86
2023/04/11 11:32:27;;;;;;;16.92;3.42;;;8.70;99.90;;;;;;5055944;28;20419;-86
2023/04/11 11:34:54;;;;;;;10.32;3.08;;;8.50;99.90;;;;;;5069604;28;20025;-85
2023/04/11 11:37:20;;;;;;;18.42;4.20;;;8.40;99.90;;;;;;5055158;28;20024;-85
2023/04/11 11:39:47;;;;;;;23.38;3.78;;;8.10;99.90;;;;;;5058285;28;20087;-85
2023/04/11 11:42:13;;;;;;;5.85;2.10;;;7.20;99.90;;;;;;5058864;28;20119;-85
2023/04/11 11:44:39;;;;;;;15.52;4.28;;;6.60;99.90;;;;;;5075790;28;20040;-85
2023/04/11 11:47:07;;;;;;;22.35;7.82;;;6.70;99.90;;;;;;5075774;28;20032;-85
2023/04/11 11:49:53;;;;;;;14.75;4.35;;;7.80;99.90;;;;;;5076456;28;20021;-86
2023/04/11 11:52:39;;;;;;;9.70;2.60;;;9.10;99.90;;;;;;5075608;28;20028;-86
2023/04/11 11:55:29;;;;;;;6.65;2.78;;;9.90;99.90;;;;;;5092272;28;20035;-86
2023/04/11 11:58:00;;;;;;;12.45;3.35;;;10.50;99.90;;;;;;5092506;28;20406;-84
2023/04/11 12:00:27;;;;;;;8.47;2.80;;;10.90;99.90;;;;;;5058616;28;20036;-84
2023/04/11 12:02:54;;;;;;;12.43;3.78;;;11.20;99.90;;;;;;5075277;28;20414;-84
2023/04/11 12:05:22;;;;;;;9.02;2.58;;;11.30;99.90;;;;;;5075148;28;20139;-84
2023/04/11 12:07:58;;;;;;;9.15;2.47;;;11.30;99.90;;;;;;5075903;28;20029;-85
2023/04/11 12:10:26;;;;;;;9.85;2.30;;;11.30;99.90;;;;;;5074873;28;20031;-85
2023/04/11 12:12:51;;;;;;;8.15;3.28;;;11.10;99.90;;;;;;5058264;28;20016;-84
2023/04/11 12:15:25;;;;;;;9.20;2.60;;;10.50;99.90;;;;;;5074764;28;20426;-85
2023/04/11 12:17:57;;;;;;;10.73;2.80;;;9.90;99.90;;;;;;5072941;28;20038;-85
2023/04/11 12:20:25;;;;;;;7.85;2.40;;;9.40;99.90;;;;;;5058070;28;20123;-84
2023/04/11 12:22:51;;;;;;;10.07;1.60;;;9.00;99.90;;;;;;5076332;28;20502;-85
2023/04/11 12:25:17;;;;;;;9.05;2.15;;;8.60;99.90;;;;;;5072220;28;20024;-84
2023/04/11 12:27:44;;;;;;;6.25;1.58;;;8.20;99.90;;;;;;5070626;28;20467;-86
2023/04/11 12:30:11;;;;;;;10.90;2.58;;;7.90;99.90;;;;;;5070301;28;20391;-84
2023/04/11 12:32:37;;;;;;;7.53;2.03;;;7.30;99.90;;;;;;5063912;28;20033;-84
2023/04/11 12:35:04;;;;;;;8.63;2.08;;;7.00;99.90;;;;;;5082400;28;20032;-83
2023/04/11 12:37:31;;;;;;;7.45;1.90;;;6.70;99.90;;;;;;5066809;28;20483;-83
2023/04/11 12:39:56;;;;;;;10.35;2.17;;;6.30;99.90;;;;;;5060917;28;20020;-85
2023/04/11 12:42:22;;;;;;;8.07;1.65;;;6.40;99.90;;;;;;5059177;28;20035;-84
2023/04/11 12:44:49;;;;;;;7.05;1.45;;;6.90;99.90;;;;;;5057584;28;20119;-84
2023/04/11 12:47:15;;;;;;;3.85;1.50;;;7.20;99.90;;;;;;5059453;28;20494;-84
2023/04/11 12:49:41;;;;;;;9.38;2.10;;;7.30;99.90;;;;;;5053764;28;20033;-85
2023/04/11 12:52:08;;;;;;;10.50;2.15;;;7.70;99.90;;;;;;5058128;28;20021;-85
2023/04/11 12:54:34;;;;;;;7.95;2.38;;;8.00;99.90;;;;;;5062491;28;20062;-85
2023/04/11 12:57:01;;;;;;;7.63;2.90;;;8.40;99.90;;;;;;5061229;28;20365;-85
2023/04/11 12:59:27;;;;;;;4.95;1.38;;;8.90;99.90;;;;;;5063365;28;20032;-85
2023/04/11 13:01:53;;;;;;;3.55;1.60;;;9.20;99.90;;;;;;5061300;28;20094;-85